sensor_id;sensor_type;location;lat;lon;timestamp;P1;durP1;ratioP1;P2;durP2;ratioP2
39454;SDS011;25155;41.890;23.446;2023-12-20T00:02:23;75.82;;;43.60;;
39454;SDS011;25155;41.890;23.446;2023-12-20T00:04:50;103.70;;;58.42;;
39454;SDS011;25155;41.890;23.446;2023-12-20T00:07:18;129.23;;;71.00;;
39454;SDS011;25155;41.890;23.446;2023-12-20T00:09:45;120.15;;;68.38;;
39454;SDS011;25155;41.890;23.446;2023-12-20T00:12:14;131.43;;;74.65;;
39454;SDS011;25155;41.890;23.446;2023-12-20T00:14:41;149.95;;;81.47;;
39454;SDS011;25155;41.890;23.446;2023-12-20T00:17:09;137.75;;;77.45;;
39454;SDS011;25155;41.890;23.446;2023-12-20T00:19:36;100.65;;;60.25;;
39454;SDS011;25155;41.890;23.446;2023-12-20T00:22:03;104.63;;;58.97;;
39454;SDS011;25155;41.890;23.446;2023-12-20T00:24:31;93.68;;;53.72;;
39454;SDS011;25155;41.890;23.446;2023-12-20T00:26:58;81.03;;;45.65;;
39454;SDS011;25155;41.890;23.446;2023-12-20T00:29:26;68.88;;;40.55;;
39454;SDS011;25155;41.890;23.446;2023-12-20T00:31:53;66.65;;;39.85;;
39454;SDS011;25155;41.890;23.446;2023-12-20T00:34:20;59.05;;;36.42;;
39454;SDS011;25155;41.890;23.446;2023-12-20T00:36:48;58.63;;;35.88;;
39454;SDS011;25155;41.890;23.446;2023-12-20T00:39:15;60.65;;;35.38;;
39454;SDS011;25155;41.890;23.446;2023-12-20T00:41:42;68.00;;;41.25;;
39454;SDS011;25155;41.890;23.446;2023-12-20T00:44:09;74.25;;;41.65;;
39454;SDS011;25155;41.890;23.446;2023-12-20T00:46:38;77.43;;;43.40;;
39454;SDS011;25155;41.890;23.446;2023-12-20T00:49:05;66.30;;;39.25;;
39454;SDS011;25155;41.890;23.446;2023-12-20T00:51:33;89.05;;;50.28;;
39454;SDS011;25155;41.890;23.446;2023-12-20T00:54:00;69.75;;;43.38;;
39454;SDS011;25155;41.890;23.446;2023-12-20T00:56:27;70.03;;;41.45;;
39454;SDS011;25155;41.890;23.446;2023-12-20T00:58:55;91.80;;;49.10;;
39454;SDS011;25155;41.890;23.446;2023-12-20T01:01:22;65.20;;;39.10;;
39454;SDS011;25155;41.890;23.446;2023-12-20T01:03:50;62.70;;;38.35;;
39454;SDS011;25155;41.890;23.446;2023-12-20T01:06:18;81.55;;;46.30;;
39454;SDS011;25155;41.890;23.446;2023-12-20T01:08:45;95.60;;;49.50;;
39454;SDS011;25155;41.890;23.446;2023-12-20T01:11:12;103.53;;;52.15;;
39454;SDS011;25155;41.890;23.446;2023-12-20T01:13:39;83.68;;;47.05;;
39454;SDS011;25155;41.890;23.446;2023-12-20T01:16:06;61.33;;;36.38;;
39454;SDS011;25155;41.890;23.446;2023-12-20T01:18:35;104.32;;;56.63;;
39454;SDS011;25155;41.890;23.446;2023-12-20T01:21:05;116.90;;;59.63;;
39454;SDS011;25155;41.890;23.446;2023-12-20T01:23:32;106.68;;;57.92;;
39454;SDS011;25155;41.890;23.446;2023-12-20T01:26:00;120.60;;;64.85;;
39454;SDS011;25155;41.890;23.446;2023-12-20T01:28:27;112.85;;;61.72;;
39454;SDS011;25155;41.890;23.446;2023-12-20T01:30:55;111.00;;;62.80;;
39454;SDS011;25155;41.890;23.446;2023-12-20T01:33:22;136.98;;;73.25;;
39454;SDS011;25155;41.890;23.446;2023-12-20T01:35:49;118.22;;;64.78;;
39454;SDS011;25155;41.890;23.446;2023-12-20T01:38:18;92.68;;;53.97;;
39454;SDS011;25155;41.890;23.446;2023-12-20T01:40:45;95.35;;;54.08;;
39454;SDS011;25155;41.890;23.446;2023-12-20T01:43:12;106.00;;;56.67;;
39454;SDS011;25155;41.890;23.446;2023-12-20T01:45:39;94.90;;;55.13;;
39454;SDS011;25155;41.890;23.446;2023-12-20T01:48:07;119.90;;;66.00;;
39454;SDS011;25155;41.890;23.446;2023-12-20T01:50:36;121.20;;;69.47;;
39454;SDS011;25155;41.890;23.446;2023-12-20T01:53:04;92.20;;;52.28;;
39454;SDS011;25155;41.890;23.446;2023-12-20T01:55:36;94.70;;;51.22;;
39454;SDS011;25155;41.890;23.446;2023-12-20T01:58:07;103.90;;;56.22;;
39454;SDS011;25155;41.890;23.446;2023-12-20T02:00:35;105.95;;;58.63;;
39454;SDS011;25155;41.890;23.446;2023-12-20T02:03:03;112.13;;;59.25;;
39454;SDS011;25155;41.890;23.446;2023-12-20T02:05:31;95.63;;;52.83;;
39454;SDS011;25155;41.890;23.446;2023-12-20T02:08:00;95.93;;;52.97;;
39454;SDS011;25155;41.890;23.446;2023-12-20T02:10:28;121.15;;;61.42;;
39454;SDS011;25155;41.890;23.446;2023-12-20T02:12:57;124.00;;;62.85;;
39454;SDS011;25155;41.890;23.446;2023-12-20T02:15:24;122.80;;;65.65;;
39454;SDS011;25155;41.890;23.446;2023-12-20T02:17:51;107.93;;;58.25;;
39454;SDS011;25155;41.890;23.446;2023-12-20T02:20:19;81.53;;;45.70;;
39454;SDS011;25155;41.890;23.446;2023-12-20T02:22:47;86.65;;;49.10;;
39454;SDS011;25155;41.890;23.446;2023-12-20T02:25:15;86.60;;;46.05;;
39454;SDS011;25155;41.890;23.446;2023-12-20T02:27:42;125.75;;;65.93;;
39454;SDS011;25155;41.890;23.446;2023-12-20T02:30:10;127.60;;;69.43;;
39454;SDS011;25155;41.890;23.446;2023-12-20T02:32:37;142.85;;;65.15;;
39454;SDS011;25155;41.890;23.446;2023-12-20T02:35:05;104.65;;;57.53;;
39454;SDS011;25155;41.890;23.446;2023-12-20T02:37:33;105.35;;;57.17;;
39454;SDS011;25155;41.890;23.446;2023-12-20T02:40:01;117.22;;;63.83;;
39454;SDS011;25155;41.890;23.446;2023-12-20T02:42:30;118.25;;;64.22;;
39454;SDS011;25155;41.890;23.446;2023-12-20T02:44:58;112.35;;;64.32;;
39454;SDS011;25155;41.890;23.446;2023-12-20T02:47:25;117.28;;;64.88;;
39454;SDS011;25155;41.890;23.446;2023-12-20T02:49:52;108.25;;;59.85;;
39454;SDS011;25155;41.890;23.446;2023-12-20T02:52:20;96.45;;;52.92;;
39454;SDS011;25155;41.890;23.446;2023-12-20T02:54:47;102.80;;;55.80;;
39454;SDS011;25155;41.890;23.446;2023-12-20T02:57:15;110.38;;;56.58;;
39454;SDS011;25155;41.890;23.446;2023-12-20T02:59:43;87.63;;;47.55;;
39454;SDS011;25155;41.890;23.446;2023-12-20T03:02:10;95.22;;;50.40;;
39454;SDS011;25155;41.890;23.446;2023-12-20T03:04:37;87.80;;;49.20;;
39454;SDS011;25155;41.890;23.446;2023-12-20T03:07:05;95.57;;;49.75;;
39454;SDS011;25155;41.890;23.446;2023-12-20T03:09:32;113.70;;;58.70;;
39454;SDS011;25155;41.890;23.446;2023-12-20T03:11:59;96.07;;;50.95;;
39454;SDS011;25155;41.890;23.446;2023-12-20T03:14:28;116.90;;;59.50;;
39454;SDS011;25155;41.890;23.446;2023-12-20T03:16:55;118.68;;;58.42;;
39454;SDS011;25155;41.890;23.446;2023-12-20T03:19:22;119.57;;;60.17;;
39454;SDS011;25155;41.890;23.446;2023-12-20T03:21:50;105.95;;;53.25;;
39454;SDS011;25155;41.890;23.446;2023-12-20T03:24:19;90.03;;;46.25;;
39454;SDS011;25155;41.890;23.446;2023-12-20T03:26:46;89.45;;;46.00;;
39454;SDS011;25155;41.890;23.446;2023-12-20T03:29:13;95.28;;;48.25;;
39454;SDS011;25155;41.890;23.446;2023-12-20T03:31:42;100.00;;;50.05;;
39454;SDS011;25155;41.890;23.446;2023-12-20T03:34:09;86.07;;;46.42;;
39454;SDS011;25155;41.890;23.446;2023-12-20T03:36:36;70.93;;;37.50;;
39454;SDS011;25155;41.890;23.446;2023-12-20T03:39:04;83.28;;;44.88;;
39454;SDS011;25155;41.890;23.446;2023-12-20T03:41:32;104.28;;;54.63;;
39454;SDS011;25155;41.890;23.446;2023-12-20T03:43:59;97.70;;;48.30;;
39454;SDS011;25155;41.890;23.446;2023-12-20T03:46:26;94.97;;;49.83;;
39454;SDS011;25155;41.890;23.446;2023-12-20T03:48:55;88.55;;;47.20;;
39454;SDS011;25155;41.890;23.446;2023-12-20T03:51:22;90.97;;;46.67;;
39454;SDS011;25155;41.890;23.446;2023-12-20T03:53:49;91.43;;;49.67;;
39454;SDS011;25155;41.890;23.446;2023-12-20T03:56:16;86.40;;;47.28;;
39454;SDS011;25155;41.890;23.446;2023-12-20T03:58:44;85.95;;;47.85;;
39454;SDS011;25155;41.890;23.446;2023-12-20T04:01:11;67.05;;;39.42;;
39454;SDS011;25155;41.890;23.446;2023-12-20T04:03:38;78.57;;;42.10;;
39454;SDS011;25155;41.890;23.446;2023-12-20T04:06:07;87.40;;;48.95;;
39454;SDS011;25155;41.890;23.446;2023-12-20T04:08:35;78.35;;;43.83;;
39454;SDS011;25155;41.890;23.446;2023-12-20T04:11:02;89.47;;;49.58;;
39454;SDS011;25155;41.890;23.446;2023-12-20T04:13:29;82.55;;;45.33;;
39454;SDS011;25155;41.890;23.446;2023-12-20T04:15:56;65.07;;;37.42;;
39454;SDS011;25155;41.890;23.446;2023-12-20T04:18:23;59.83;;;34.63;;
39454;SDS011;25155;41.890;23.446;2023-12-20T04:20:51;57.22;;;32.05;;
39454;SDS011;25155;41.890;23.446;2023-12-20T04:23:19;65.05;;;37.50;;
39454;SDS011;25155;41.890;23.446;2023-12-20T04:25:46;91.07;;;47.35;;
39454;SDS011;25155;41.890;23.446;2023-12-20T04:28:14;81.28;;;45.13;;
39454;SDS011;25155;41.890;23.446;2023-12-20T04:30:41;68.43;;;39.30;;
39454;SDS011;25155;41.890;23.446;2023-12-20T04:33:09;62.00;;;35.35;;
39454;SDS011;25155;41.890;23.446;2023-12-20T04:35:36;56.10;;;32.30;;
39454;SDS011;25155;41.890;23.446;2023-12-20T04:38:03;55.20;;;32.13;;
39454;SDS011;25155;41.890;23.446;2023-12-20T04:40:32;78.00;;;43.53;;
39454;SDS011;25155;41.890;23.446;2023-12-20T04:42:59;82.50;;;43.65;;
39454;SDS011;25155;41.890;23.446;2023-12-20T04:45:27;70.03;;;35.92;;
39454;SDS011;25155;41.890;23.446;2023-12-20T04:47:54;54.22;;;30.45;;
39454;SDS011;25155;41.890;23.446;2023-12-20T04:50:22;76.63;;;41.75;;
39454;SDS011;25155;41.890;23.446;2023-12-20T04:52:49;73.40;;;40.10;;
39454;SDS011;25155;41.890;23.446;2023-12-20T04:55:16;87.80;;;46.25;;
39454;SDS011;25155;41.890;23.446;2023-12-20T04:57:45;80.50;;;44.58;;
39454;SDS011;25155;41.890;23.446;2023-12-20T05:00:12;96.43;;;49.72;;
39454;SDS011;25155;41.890;23.446;2023-12-20T05:02:40;83.47;;;43.97;;
39454;SDS011;25155;41.890;23.446;2023-12-20T05:05:08;95.72;;;48.30;;
39454;SDS011;25155;41.890;23.446;2023-12-20T05:07:35;103.88;;;52.65;;
39454;SDS011;25155;41.890;23.446;2023-12-20T05:10:03;103.30;;;53.88;;
39454;SDS011;25155;41.890;23.446;2023-12-20T05:12:30;102.25;;;52.15;;
39454;SDS011;25155;41.890;23.446;2023-12-20T05:14:59;85.53;;;44.90;;
39454;SDS011;25155;41.890;23.446;2023-12-20T05:17:26;103.20;;;50.10;;
39454;SDS011;25155;41.890;23.446;2023-12-20T05:19:54;82.97;;;43.05;;
39454;SDS011;25155;41.890;23.446;2023-12-20T05:22:21;66.65;;;34.97;;
39454;SDS011;25155;41.890;23.446;2023-12-20T05:24:48;56.65;;;31.08;;
39454;SDS011;25155;41.890;23.446;2023-12-20T05:27:16;55.65;;;30.58;;
39454;SDS011;25155;41.890;23.446;2023-12-20T05:29:43;56.92;;;31.10;;
39454;SDS011;25155;41.890;23.446;2023-12-20T05:32:11;88.53;;;46.63;;
39454;SDS011;25155;41.890;23.446;2023-12-20T05:34:38;86.55;;;46.40;;
39454;SDS011;25155;41.890;23.446;2023-12-20T05:37:06;86.72;;;45.88;;
39454;SDS011;25155;41.890;23.446;2023-12-20T05:39:33;88.68;;;47.97;;
39454;SDS011;25155;41.890;23.446;2023-12-20T05:42:00;71.28;;;40.00;;
39454;SDS011;25155;41.890;23.446;2023-12-20T05:44:28;78.88;;;42.35;;
39454;SDS011;25155;41.890;23.446;2023-12-20T05:46:55;66.97;;;38.20;;
39454;SDS011;25155;41.890;23.446;2023-12-20T05:49:24;89.32;;;48.67;;
39454;SDS011;25155;41.890;23.446;2023-12-20T05:51:51;76.95;;;41.35;;
39454;SDS011;25155;41.890;23.446;2023-12-20T05:54:19;58.83;;;33.65;;
39454;SDS011;25155;41.890;23.446;2023-12-20T05:56:47;63.65;;;36.80;;
39454;SDS011;25155;41.890;23.446;2023-12-20T05:59:14;71.13;;;39.08;;
39454;SDS011;25155;41.890;23.446;2023-12-20T06:01:41;97.05;;;50.00;;
39454;SDS011;25155;41.890;23.446;2023-12-20T06:04:08;104.30;;;53.58;;
39454;SDS011;25155;41.890;23.446;2023-12-20T06:06:41;90.95;;;47.22;;
39454;SDS011;25155;41.890;23.446;2023-12-20T06:09:08;92.13;;;49.35;;
39454;SDS011;25155;41.890;23.446;2023-12-20T06:11:36;82.95;;;45.40;;
39454;SDS011;25155;41.890;23.446;2023-12-20T06:14:03;70.47;;;39.85;;
39454;SDS011;25155;41.890;23.446;2023-12-20T06:16:30;60.65;;;33.67;;
39454;SDS011;25155;41.890;23.446;2023-12-20T06:18:58;47.25;;;27.58;;
39454;SDS011;25155;41.890;23.446;2023-12-20T06:21:25;53.67;;;30.65;;
39454;SDS011;25155;41.890;23.446;2023-12-20T06:23:54;106.82;;;57.15;;
39454;SDS011;25155;41.890;23.446;2023-12-20T06:26:21;110.65;;;60.15;;
39454;SDS011;25155;41.890;23.446;2023-12-20T06:28:49;88.72;;;47.97;;
39454;SDS011;25155;41.890;23.446;2023-12-20T06:31:16;112.20;;;58.28;;
39454;SDS011;25155;41.890;23.446;2023-12-20T06:33:43;92.00;;;51.30;;
39454;SDS011;25155;41.890;23.446;2023-12-20T06:36:11;77.60;;;42.60;;
39454;SDS011;25155;41.890;23.446;2023-12-20T06:38:39;77.80;;;44.58;;
39454;SDS011;25155;41.890;23.446;2023-12-20T06:41:10;91.18;;;49.78;;
39454;SDS011;25155;41.890;23.446;2023-12-20T06:43:40;84.18;;;49.00;;
39454;SDS011;25155;41.890;23.446;2023-12-20T06:46:07;107.97;;;54.90;;
39454;SDS011;25155;41.890;23.446;2023-12-20T06:48:35;107.07;;;54.38;;
39454;SDS011;25155;41.890;23.446;2023-12-20T06:51:03;97.65;;;48.80;;
39454;SDS011;25155;41.890;23.446;2023-12-20T06:53:31;73.95;;;39.33;;
39454;SDS011;25155;41.890;23.446;2023-12-20T06:55:58;117.35;;;54.17;;
39454;SDS011;25155;41.890;23.446;2023-12-20T06:58:27;112.05;;;53.42;;
39454;SDS011;25155;41.890;23.446;2023-12-20T07:00:54;103.53;;;50.40;;
39454;SDS011;25155;41.890;23.446;2023-12-20T07:03:21;122.47;;;57.30;;
39454;SDS011;25155;41.890;23.446;2023-12-20T07:05:49;108.95;;;54.10;;
39454;SDS011;25155;41.890;23.446;2023-12-20T07:08:16;124.03;;;59.70;;
39454;SDS011;25155;41.890;23.446;2023-12-20T07:10:44;111.75;;;55.30;;
39454;SDS011;25155;41.890;23.446;2023-12-20T07:13:12;127.28;;;57.97;;
39454;SDS011;25155;41.890;23.446;2023-12-20T07:15:41;136.32;;;61.38;;
39454;SDS011;25155;41.890;23.446;2023-12-20T07:18:08;96.75;;;50.33;;
39454;SDS011;25155;41.890;23.446;2023-12-20T07:20:35;91.22;;;46.50;;
39454;SDS011;25155;41.890;23.446;2023-12-20T07:23:03;112.70;;;54.42;;
39454;SDS011;25155;41.890;23.446;2023-12-20T07:25:30;103.32;;;50.17;;
39454;SDS011;25155;41.890;23.446;2023-12-20T07:27:59;109.90;;;53.95;;
39454;SDS011;25155;41.890;23.446;2023-12-20T07:30:26;108.07;;;52.50;;
39454;SDS011;25155;41.890;23.446;2023-12-20T07:32:55;90.65;;;46.15;;
39454;SDS011;25155;41.890;23.446;2023-12-20T07:35:22;100.18;;;50.88;;
39454;SDS011;25155;41.890;23.446;2023-12-20T07:37:50;111.97;;;55.30;;
39454;SDS011;25155;41.890;23.446;2023-12-20T07:40:17;99.88;;;51.10;;
39454;SDS011;25155;41.890;23.446;2023-12-20T07:42:44;152.40;;;69.97;;
39454;SDS011;25155;41.890;23.446;2023-12-20T07:45:12;141.13;;;67.75;;
39454;SDS011;25155;41.890;23.446;2023-12-20T07:47:39;144.18;;;72.15;;
39454;SDS011;25155;41.890;23.446;2023-12-20T07:50:07;167.40;;;78.32;;
39454;SDS011;25155;41.890;23.446;2023-12-20T07:52:35;124.63;;;67.00;;
39454;SDS011;25155;41.890;23.446;2023-12-20T07:55:02;103.53;;;52.53;;
39454;SDS011;25155;41.890;23.446;2023-12-20T07:57:29;82.30;;;43.35;;
39454;SDS011;25155;41.890;23.446;2023-12-20T07:59:56;85.57;;;43.05;;
39454;SDS011;25155;41.890;23.446;2023-12-20T08:02:23;67.20;;;35.47;;
39454;SDS011;25155;41.890;23.446;2023-12-20T08:04:50;73.85;;;38.10;;
39454;SDS011;25155;41.890;23.446;2023-12-20T08:07:19;110.25;;;56.92;;
39454;SDS011;25155;41.890;23.446;2023-12-20T08:09:46;131.02;;;66.95;;
39454;SDS011;25155;41.890;23.446;2023-12-20T08:12:13;114.35;;;59.45;;
39454;SDS011;25155;41.890;23.446;2023-12-20T08:14:42;80.35;;;43.42;;
39454;SDS011;25155;41.890;23.446;2023-12-20T08:17:09;83.28;;;45.13;;
39454;SDS011;25155;41.890;23.446;2023-12-20T08:19:38;131.60;;;65.85;;
39454;SDS011;25155;41.890;23.446;2023-12-20T08:22:05;132.82;;;70.38;;
39454;SDS011;25155;41.890;23.446;2023-12-20T08:24:33;136.80;;;70.88;;
39454;SDS011;25155;41.890;23.446;2023-12-20T08:27:00;209.32;;;110.70;;
39454;SDS011;25155;41.890;23.446;2023-12-20T08:29:27;155.40;;;83.13;;
39454;SDS011;25155;41.890;23.446;2023-12-20T08:31:55;163.43;;;91.78;;
39454;SDS011;25155;41.890;23.446;2023-12-20T08:34:22;116.68;;;66.35;;
39454;SDS011;25155;41.890;23.446;2023-12-20T08:36:50;95.75;;;53.58;;
39454;SDS011;25155;41.890;23.446;2023-12-20T08:39:17;111.82;;;66.30;;
39454;SDS011;25155;41.890;23.446;2023-12-20T08:41:46;133.55;;;78.72;;
39454;SDS011;25155;41.890;23.446;2023-12-20T08:44:13;133.95;;;81.50;;
39454;SDS011;25155;41.890;23.446;2023-12-20T08:46:40;108.10;;;65.43;;
39454;SDS011;25155;41.890;23.446;2023-12-20T08:49:07;102.63;;;60.50;;
39454;SDS011;25155;41.890;23.446;2023-12-20T08:51:35;82.72;;;48.88;;
39454;SDS011;25155;41.890;23.446;2023-12-20T08:54:05;98.25;;;57.60;;
39454;SDS011;25155;41.890;23.446;2023-12-20T08:56:33;87.50;;;51.38;;
39454;SDS011;25155;41.890;23.446;2023-12-20T08:59:02;121.70;;;72.13;;
39454;SDS011;25155;41.890;23.446;2023-12-20T09:01:29;186.70;;;114.18;;
39454;SDS011;25155;41.890;23.446;2023-12-20T09:03:56;163.63;;;99.47;;
39454;SDS011;25155;41.890;23.446;2023-12-20T09:06:23;194.13;;;116.95;;
39454;SDS011;25155;41.890;23.446;2023-12-20T09:08:51;186.15;;;114.20;;
39454;SDS011;25155;41.890;23.446;2023-12-20T09:11:18;176.15;;;108.78;;
39454;SDS011;25155;41.890;23.446;2023-12-20T09:13:45;133.48;;;76.20;;
39454;SDS011;25155;41.890;23.446;2023-12-20T09:16:14;124.90;;;77.05;;
39454;SDS011;25155;41.890;23.446;2023-12-20T09:18:42;142.07;;;90.10;;
39454;SDS011;25155;41.890;23.446;2023-12-20T09:21:09;146.80;;;89.03;;
39454;SDS011;25155;41.890;23.446;2023-12-20T09:23:37;139.50;;;83.28;;
39454;SDS011;25155;41.890;23.446;2023-12-20T09:26:05;211.98;;;127.72;;
39454;SDS011;25155;41.890;23.446;2023-12-20T09:28:32;186.10;;;117.75;;
39454;SDS011;25155;41.890;23.446;2023-12-20T09:31:03;210.30;;;130.13;;
39454;SDS011;25155;41.890;23.446;2023-12-20T09:33:32;215.00;;;132.18;;
39454;SDS011;25155;41.890;23.446;2023-12-20T09:35:59;215.68;;;132.15;;
39454;SDS011;25155;41.890;23.446;2023-12-20T09:38:26;210.98;;;132.77;;
39454;SDS011;25155;41.890;23.446;2023-12-20T09:40:54;172.18;;;109.28;;
39454;SDS011;25155;41.890;23.446;2023-12-20T09:43:22;186.18;;;115.05;;
39454;SDS011;25155;41.890;23.446;2023-12-20T09:45:53;202.38;;;129.23;;
39454;SDS011;25155;41.890;23.446;2023-12-20T09:48:23;218.15;;;140.95;;
39454;SDS011;25155;41.890;23.446;2023-12-20T09:50:55;200.32;;;128.02;;
39454;SDS011;25155;41.890;23.446;2023-12-20T09:53:23;205.13;;;129.93;;
39454;SDS011;25155;41.890;23.446;2023-12-20T09:55:55;215.15;;;138.95;;
39454;SDS011;25155;41.890;23.446;2023-12-20T09:58:25;197.37;;;125.47;;
39454;SDS011;25155;41.890;23.446;2023-12-20T10:00:53;203.63;;;133.32;;
39454;SDS011;25155;41.890;23.446;2023-12-20T10:03:22;209.98;;;137.38;;
39454;SDS011;25155;41.890;23.446;2023-12-20T10:05:52;188.23;;;122.75;;
39454;SDS011;25155;41.890;23.446;2023-12-20T10:08:22;185.50;;;119.28;;
39454;SDS011;25155;41.890;23.446;2023-12-20T10:10:51;180.25;;;117.35;;
39454;SDS011;25155;41.890;23.446;2023-12-20T10:13:18;174.32;;;114.60;;
39454;SDS011;25155;41.890;23.446;2023-12-20T10:15:45;189.45;;;123.32;;
39454;SDS011;25155;41.890;23.446;2023-12-20T10:18:12;203.73;;;131.27;;
39454;SDS011;25155;41.890;23.446;2023-12-20T10:20:40;182.13;;;119.70;;
39454;SDS011;25155;41.890;23.446;2023-12-20T10:23:08;157.57;;;106.05;;
39454;SDS011;25155;41.890;23.446;2023-12-20T10:25:37;179.52;;;119.03;;
39454;SDS011;25155;41.890;23.446;2023-12-20T10:28:10;166.18;;;109.15;;
39454;SDS011;25155;41.890;23.446;2023-12-20T10:30:39;180.07;;;122.00;;
39454;SDS011;25155;41.890;23.446;2023-12-20T10:33:07;161.68;;;109.72;;
39454;SDS011;25155;41.890;23.446;2023-12-20T10:35:35;123.53;;;86.68;;
39454;SDS011;25155;41.890;23.446;2023-12-20T10:38:04;128.55;;;87.93;;
39454;SDS011;25155;41.890;23.446;2023-12-20T10:40:34;149.35;;;100.78;;
39454;SDS011;25155;41.890;23.446;2023-12-20T10:43:04;137.60;;;90.53;;
39454;SDS011;25155;41.890;23.446;2023-12-20T10:45:31;116.65;;;80.10;;
39454;SDS011;25155;41.890;23.446;2023-12-20T10:47:59;126.00;;;87.05;;
39454;SDS011;25155;41.890;23.446;2023-12-20T10:50:28;131.20;;;88.88;;
39454;SDS011;25155;41.890;23.446;2023-12-20T10:52:56;131.57;;;87.35;;
39454;SDS011;25155;41.890;23.446;2023-12-20T10:55:24;119.43;;;77.78;;
39454;SDS011;25155;41.890;23.446;2023-12-20T10:57:52;144.43;;;97.75;;
39454;SDS011;25155;41.890;23.446;2023-12-20T11:00:28;148.45;;;99.22;;
39454;SDS011;25155;41.890;23.446;2023-12-20T11:02:57;124.32;;;84.05;;
39454;SDS011;25155;41.890;23.446;2023-12-20T11:05:31;107.63;;;71.40;;
39454;SDS011;25155;41.890;23.446;2023-12-20T11:08:09;92.85;;;60.13;;
39454;SDS011;25155;41.890;23.446;2023-12-20T11:10:42;91.88;;;61.42;;
39454;SDS011;25155;41.890;23.446;2023-12-20T11:13:17;92.85;;;62.22;;
39454;SDS011;25155;41.890;23.446;2023-12-20T11:15:50;93.13;;;62.28;;
39454;SDS011;25155;41.890;23.446;2023-12-20T11:18:17;106.38;;;70.65;;
39454;SDS011;25155;41.890;23.446;2023-12-20T11:20:44;105.57;;;72.32;;
39454;SDS011;25155;41.890;23.446;2023-12-20T11:23:11;128.23;;;86.97;;
39454;SDS011;25155;41.890;23.446;2023-12-20T11:25:46;120.25;;;84.93;;
39454;SDS011;25155;41.890;23.446;2023-12-20T11:28:14;112.43;;;76.65;;
39454;SDS011;25155;41.890;23.446;2023-12-20T11:30:46;90.45;;;60.17;;
39454;SDS011;25155;41.890;23.446;2023-12-20T11:33:15;84.07;;;56.05;;
39454;SDS011;25155;41.890;23.446;2023-12-20T11:35:43;92.93;;;61.15;;
39454;SDS011;25155;41.890;23.446;2023-12-20T11:38:13;89.95;;;62.63;;
39454;SDS011;25155;41.890;23.446;2023-12-20T11:40:41;84.15;;;58.80;;
39454;SDS011;25155;41.890;23.446;2023-12-20T11:43:09;77.88;;;55.17;;
39454;SDS011;25155;41.890;23.446;2023-12-20T11:45:36;80.85;;;54.78;;
39454;SDS011;25155;41.890;23.446;2023-12-20T11:48:03;99.22;;;68.82;;
39454;SDS011;25155;41.890;23.446;2023-12-20T11:50:34;97.15;;;65.93;;
39454;SDS011;25155;41.890;23.446;2023-12-20T11:53:01;113.07;;;76.22;;
39454;SDS011;25155;41.890;23.446;2023-12-20T11:55:28;122.07;;;84.55;;
39454;SDS011;25155;41.890;23.446;2023-12-20T11:57:56;102.55;;;70.70;;
39454;SDS011;25155;41.890;23.446;2023-12-20T12:00:24;93.95;;;64.50;;
39454;SDS011;25155;41.890;23.446;2023-12-20T12:02:55;93.05;;;63.53;;
39454;SDS011;25155;41.890;23.446;2023-12-20T12:05:22;99.13;;;70.40;;
39454;SDS011;25155;41.890;23.446;2023-12-20T12:07:51;135.73;;;95.50;;
39454;SDS011;25155;41.890;23.446;2023-12-20T12:10:19;128.68;;;90.32;;
39454;SDS011;25155;41.890;23.446;2023-12-20T12:12:46;135.73;;;94.13;;
39454;SDS011;25155;41.890;23.446;2023-12-20T12:15:14;123.13;;;82.40;;
39454;SDS011;25155;41.890;23.446;2023-12-20T12:17:41;95.43;;;67.45;;
39454;SDS011;25155;41.890;23.446;2023-12-20T12:20:08;82.18;;;57.78;;
39454;SDS011;25155;41.890;23.446;2023-12-20T12:22:37;97.70;;;66.65;;
39454;SDS011;25155;41.890;23.446;2023-12-20T12:25:12;94.35;;;64.55;;
39454;SDS011;25155;41.890;23.446;2023-12-20T12:27:40;72.40;;;51.13;;
39454;SDS011;25155;41.890;23.446;2023-12-20T12:30:08;80.60;;;57.65;;
39454;SDS011;25155;41.890;23.446;2023-12-20T12:32:38;76.63;;;52.25;;
39454;SDS011;25155;41.890;23.446;2023-12-20T12:35:07;92.05;;;62.80;;
39454;SDS011;25155;41.890;23.446;2023-12-20T12:37:37;60.92;;;41.75;;
39454;SDS011;25155;41.890;23.446;2023-12-20T12:40:05;47.42;;;33.25;;
39454;SDS011;25155;41.890;23.446;2023-12-20T12:42:34;34.92;;;24.98;;
39454;SDS011;25155;41.890;23.446;2023-12-20T12:45:01;37.78;;;26.85;;
39454;SDS011;25155;41.890;23.446;2023-12-20T12:47:29;48.45;;;33.17;;
39454;SDS011;25155;41.890;23.446;2023-12-20T12:49:57;49.25;;;34.72;;
39454;SDS011;25155;41.890;23.446;2023-12-20T12:52:24;50.53;;;35.47;;
39454;SDS011;25155;41.890;23.446;2023-12-20T12:54:52;38.75;;;27.08;;
39454;SDS011;25155;41.890;23.446;2023-12-20T12:57:19;49.25;;;33.03;;
39454;SDS011;25155;41.890;23.446;2023-12-20T12:59:47;80.63;;;55.25;;
39454;SDS011;25155;41.890;23.446;2023-12-20T13:02:15;66.57;;;47.17;;
39454;SDS011;25155;41.890;23.446;2023-12-20T13:04:43;68.20;;;47.28;;
39454;SDS011;25155;41.890;23.446;2023-12-20T13:07:11;52.53;;;36.33;;
39454;SDS011;25155;41.890;23.446;2023-12-20T13:09:40;76.88;;;56.40;;
39454;SDS011;25155;41.890;23.446;2023-12-20T13:12:07;74.15;;;50.75;;
39454;SDS011;25155;41.890;23.446;2023-12-20T13:14:35;70.93;;;48.65;;
39454;SDS011;25155;41.890;23.446;2023-12-20T13:17:04;53.88;;;38.78;;
39454;SDS011;25155;41.890;23.446;2023-12-20T13:19:32;53.20;;;36.15;;
39454;SDS011;25155;41.890;23.446;2023-12-20T13:21:59;95.25;;;65.97;;
39454;SDS011;25155;41.890;23.446;2023-12-20T13:24:26;72.93;;;52.70;;
39454;SDS011;25155;41.890;23.446;2023-12-20T13:26:54;57.65;;;40.83;;
39454;SDS011;25155;41.890;23.446;2023-12-20T13:29:21;68.22;;;47.47;;
39454;SDS011;25155;41.890;23.446;2023-12-20T13:31:49;46.20;;;31.30;;
39454;SDS011;25155;41.890;23.446;2023-12-20T13:34:17;46.17;;;32.47;;
39454;SDS011;25155;41.890;23.446;2023-12-20T13:36:44;36.60;;;25.98;;
39454;SDS011;25155;41.890;23.446;2023-12-20T13:39:12;35.80;;;26.67;;
39454;SDS011;25155;41.890;23.446;2023-12-20T13:41:40;58.08;;;41.92;;
39454;SDS011;25155;41.890;23.446;2023-12-20T13:44:07;60.97;;;45.22;;
39454;SDS011;25155;41.890;23.446;2023-12-20T13:46:34;54.45;;;38.20;;
39454;SDS011;25155;41.890;23.446;2023-12-20T13:49:02;45.22;;;32.65;;
39454;SDS011;25155;41.890;23.446;2023-12-20T13:51:31;42.30;;;30.58;;
39454;SDS011;25155;41.890;23.446;2023-12-20T13:53:59;37.72;;;27.75;;
39454;SDS011;25155;41.890;23.446;2023-12-20T13:56:26;41.65;;;28.52;;
39454;SDS011;25155;41.890;23.446;2023-12-20T13:58:53;47.38;;;33.50;;
39454;SDS011;25155;41.890;23.446;2023-12-20T14:01:20;41.10;;;29.80;;
39454;SDS011;25155;41.890;23.446;2023-12-20T14:03:47;35.78;;;25.20;;
39454;SDS011;25155;41.890;23.446;2023-12-20T14:06:18;38.92;;;26.00;;